weather.gov     
National Weather Service

Terminal Aerodrome Forecast
NWS Homepage
This page is being discontinued on March 12, 2014.
The same data is available at this site. Please update your bookmarks.
Thank you, and we apologize for the inconvenience.
Please send an email to SR-SRH.Webmaster@noaa.gov with any concerns.


Current Version
Previous Version:    01  02  03  04  05  06  07  08  09  10  11  12  13  14  15  16  17  18  19  20  21  22  23  24  25  26  27  28  29  30  
   31  32  33  34  35  36  37  38  39  40  41  42  43  44  45  46  47  48  49  50  51  
[Printable]
977
FTUS45 KBOU 290520
TAFBJC
TAF
KBJC 290520Z 2906/3006 VRB05KT P6SM SCT120 BKN200
     FM291000 VRB04KT P6SM FEW040 BKN200
     FM291700 03007KT P6SM SCT080 BKN140
     FM292000 05010KT P6SM VCTS SCT060CB BKN080
      TEMPO 2921/3001 VRB20G30KT 5SM TSRA BKN050CB
     FM300100 06008KT 5SM TSRA BKN040CB OVC050
      TEMPO 3001/3005 3SM +SHRA OVC030=




977
FTUS45 KBOU 290520
TAFBJC
TAF
KBJC 290520Z 2906/3006 VRB05KT P6SM SCT120 BKN200
     FM291000 VRB04KT P6SM FEW040 BKN200
     FM291700 03007KT P6SM SCT080 BKN140
     FM292000 05010KT P6SM VCTS SCT060CB BKN080
      TEMPO 2921/3001 VRB20G30KT 5SM TSRA BKN050CB
     FM300100 06008KT 5SM TSRA BKN040CB OVC050
      TEMPO 3001/3005 3SM +SHRA OVC030=


U.S. Dept. of Commerce
NOAA National Weather Service
1325 East West Highway
Silver Spring, MD 20910
E-mail: w-nws.webmaster@noaa.gov
Page last modified: May 16, 2007
NATIONAL WEATHER SERVICE: for Safety, for Work, for Fun - FOR LIFE